createdAt,value
2022-08-22T00:02:34.823Z,99.50
2022-08-22T00:02:49.934Z,97.50
2022-08-22T00:02:58.382Z,97.40
2022-08-22T00:06:16.530Z,99.10
2022-08-22T00:09:58.376Z,99.20
2022-08-22T00:13:45.853Z,99.50
2022-08-22T00:17:36.636Z,99.40
2022-08-22T00:21:23.245Z,99.60
2022-08-22T00:25:25.768Z,99.70
2022-08-22T00:29:09.328Z,99.80
2022-08-22T00:32:59.344Z,99.80
2022-08-22T00:36:59.380Z,99.90
2022-08-22T00:40:50.335Z,99.90
2022-08-22T00:44:44.497Z,99.90
2022-08-22T00:48:47.912Z,99.90
2022-08-22T00:52:38.209Z,99.90
2022-08-22T00:56:42.561Z,99.80
2022-08-22T01:00:28.381Z,99.90
2022-08-22T01:04:14.517Z,99.90
2022-08-22T01:07:59.421Z,99.90
2022-08-22T01:11:44.058Z,99.90
2022-08-22T01:15:26.959Z,99.90
2022-08-22T01:19:14.463Z,99.90
2022-08-22T01:23:15.073Z,99.90
2022-08-22T01:26:59.791Z,99.90
2022-08-22T01:31:04.514Z,99.90
2022-08-22T01:35:05.462Z,99.90
2022-08-22T01:39:10.510Z,99.90
2022-08-22T01:42:55.230Z,99.90
2022-08-22T01:46:40.745Z,99.90
2022-08-22T01:50:25.565Z,99.90
2022-08-22T01:54:10.360Z,99.90
2022-08-22T01:57:53.103Z,99.90
2022-08-22T02:01:58.776Z,99.90
2022-08-22T02:05:46.721Z,99.90
2022-08-22T02:09:28.423Z,99.90
2022-08-22T02:13:23.228Z,99.90
2022-08-22T02:17:13.385Z,99.90
2022-08-22T02:21:12.459Z,99.90
2022-08-22T02:24:54.181Z,99.90
2022-08-22T02:28:56.578Z,99.90
2022-08-22T02:32:42.279Z,99.90
2022-08-22T02:36:26.816Z,99.90
2022-08-22T02:40:41.072Z,99.90
2022-08-22T02:44:33.420Z,99.90
2022-08-22T02:48:32.531Z,99.90
2022-08-22T02:52:29.029Z,99.90
2022-08-22T02:56:15.680Z,99.90
2022-08-22T03:00:30.654Z,99.90
2022-08-22T03:04:33.143Z,99.90
2022-08-22T03:08:25.440Z,99.90
2022-08-22T03:12:10.325Z,99.90
2022-08-22T03:15:59.636Z,99.90
2022-08-22T03:20:02.027Z,99.90
2022-08-22T03:24:07.153Z,99.90
2022-08-22T03:27:54.529Z,99.90
2022-08-22T03:31:36.237Z,99.90
2022-08-22T03:35:36.881Z,99.90
2022-08-22T03:39:19.178Z,99.90
2022-08-22T03:43:13.189Z,99.90
2022-08-22T03:47:04.160Z,99.90
2022-08-22T03:50:48.905Z,99.90
2022-08-22T03:54:39.863Z,99.90
2022-08-22T03:58:30.894Z,99.90
2022-08-22T04:02:41.970Z,99.90
2022-08-22T04:06:40.473Z,99.90
2022-08-22T04:10:41.164Z,99.90
2022-08-22T04:14:41.652Z,99.90
2022-08-22T04:18:41.940Z,99.90
2022-08-22T04:22:26.839Z,99.90
2022-08-22T04:26:12.198Z,99.90
2022-08-22T04:29:54.527Z,99.90
2022-08-22T04:33:51.213Z,99.90
2022-08-22T04:37:39.102Z,99.90
2022-08-22T04:41:24.826Z,99.90
2022-08-22T04:45:10.685Z,99.90
2022-08-22T04:48:54.013Z,99.90
2022-08-22T04:52:39.461Z,99.90
2022-08-22T04:56:29.587Z,99.90
2022-08-22T05:00:11.879Z,99.90
2022-08-22T05:03:58.942Z,99.90
2022-08-22T05:07:44.407Z,99.90
2022-08-22T05:11:26.184Z,99.90
2022-08-22T05:15:16.244Z,99.90
2022-08-22T05:19:16.145Z,99.90
2022-08-22T05:22:59.802Z,99.90
2022-08-22T05:26:42.361Z,99.90
2022-08-22T05:30:25.417Z,99.90
2022-08-22T05:34:17.308Z,99.90
2022-08-22T05:37:59.330Z,99.90
2022-08-22T05:41:41.638Z,99.90
2022-08-22T05:45:23.546Z,99.90
2022-08-22T05:49:05.299Z,99.90
2022-08-22T05:53:08.940Z,99.90
2022-08-22T05:56:53.093Z,99.90
2022-08-22T06:00:35.789Z,99.90
2022-08-22T06:04:22.224Z,99.90
2022-08-22T06:08:24.218Z,99.90
2022-08-22T06:12:22.116Z,99.90
2022-08-22T06:16:07.142Z,99.90
2022-08-22T06:19:51.179Z,99.90
2022-08-22T06:23:41.658Z,99.90
2022-08-22T06:27:24.049Z,99.90
2022-08-22T06:31:06.292Z,99.90
2022-08-22T06:34:48.002Z,99.90
2022-08-22T06:38:33.306Z,99.90
2022-08-22T06:42:17.270Z,99.90
2022-08-22T06:45:58.977Z,99.90
2022-08-22T06:49:40.706Z,99.90
2022-08-22T06:53:31.535Z,99.90
2022-08-22T06:57:25.811Z,99.90
2022-08-22T07:01:14.940Z,99.90
2022-08-22T07:04:56.682Z,99.90
2022-08-22T07:08:39.282Z,99.90
2022-08-22T07:12:21.905Z,98.40
2022-08-22T07:16:05.350Z,96.40
2022-08-22T07:19:54.136Z,96.10
2022-08-22T07:23:40.584Z,98.00
2022-08-22T07:27:26.161Z,99.30
2022-08-22T07:31:11.332Z,99.40
2022-08-22T07:34:53.515Z,96.90
2022-08-22T07:38:37.590Z,95.10
2022-08-22T07:42:25.726Z,96.90
2022-08-22T07:46:10.390Z,97.70
2022-08-22T07:49:52.117Z,97.70
2022-08-22T07:53:40.112Z,95.00
2022-08-22T07:57:27.878Z,95.90
2022-08-22T08:01:10.248Z,94.20
2022-08-22T08:04:53.052Z,94.30
2022-08-22T08:08:39.217Z,95.10
2022-08-22T08:12:22.032Z,93.80
2022-08-22T08:16:04.523Z,94.10
2022-08-22T08:19:47.316Z,92.30
2022-08-22T08:23:29.473Z,91.50
2022-08-22T08:27:36.571Z,90.50
2022-08-22T08:31:29.149Z,87.70
2022-08-22T08:35:27.905Z,89.30
2022-08-22T08:39:12.586Z,93.40
2022-08-22T08:43:13.124Z,92.60
2022-08-22T08:47:13.954Z,91.50
2022-08-22T08:51:05.102Z,89.20
2022-08-22T08:54:55.016Z,88.80
2022-08-22T08:58:47.592Z,91.70
2022-08-22T09:02:51.557Z,91.60
2022-08-22T09:06:42.400Z,90.50
2022-08-22T09:10:30.083Z,90.00
2022-08-22T09:14:19.486Z,93.30
2022-08-22T09:18:01.236Z,93.10
2022-08-22T09:21:52.439Z,96.30
2022-08-22T09:25:38.535Z,95.60
2022-08-22T09:29:24.921Z,94.80
2022-08-22T09:33:09.832Z,91.30
2022-08-22T09:37:14.160Z,86.30
2022-08-22T09:41:02.392Z,86.20
2022-08-22T09:44:49.998Z,88.60
2022-08-22T09:48:38.355Z,86.30
2022-08-22T09:52:36.970Z,87.80
2022-08-22T09:56:20.384Z,87.60
2022-08-22T10:00:05.088Z,91.10
2022-08-22T10:03:46.780Z,95.10
2022-08-22T10:07:38.071Z,90.20
2022-08-22T10:11:23.807Z,90.00
2022-08-22T10:15:06.801Z,94.40
2022-08-22T10:18:53.918Z,95.40
2022-08-22T10:22:37.092Z,94.30
2022-08-22T10:26:26.887Z,93.00
2022-08-22T10:30:10.186Z,95.70
2022-08-22T10:33:54.890Z,95.40
2022-08-22T10:38:00.302Z,95.10
2022-08-22T10:41:54.300Z,93.40
2022-08-22T10:45:37.415Z,93.00
2022-08-22T10:49:22.478Z,91.90
2022-08-22T10:53:30.214Z,91.70
2022-08-22T10:57:21.012Z,93.50
2022-08-22T11:01:38.550Z,93.90
2022-08-22T11:05:04.610Z,91.80
2022-08-22T11:08:55.030Z,90.30
2022-08-22T11:12:41.508Z,94.80
2022-08-22T11:16:28.114Z,90.90
2022-08-22T11:20:16.570Z,92.10
2022-08-22T12:28:31.898Z,90.00
2022-08-22T12:32:50.881Z,94.20
2022-08-22T13:04:32.488Z,97.60
2022-08-22T13:08:29.963Z,97.90
2022-08-22T13:12:28.881Z,97.80
2022-08-22T13:16:13.073Z,96.30
2022-08-22T13:20:09.858Z,99.20
2022-08-22T13:23:53.369Z,95.90
2022-08-22T13:27:41.053Z,98.00
2022-08-22T13:31:38.425Z,96.20
2022-08-22T13:35:34.465Z,94.90
2022-08-22T13:39:16.450Z,94.30
2022-08-22T13:43:04.669Z,96.50
2022-08-22T13:47:13.081Z,97.40
2022-08-22T13:51:01.135Z,99.40
2022-08-22T13:54:57.790Z,99.90
2022-08-22T13:58:45.113Z,99.90
2022-08-22T14:02:43.356Z,99.90
2022-08-22T14:07:06.473Z,99.90
2022-08-22T14:10:52.218Z,99.60
2022-08-22T14:14:38.832Z,97.90
2022-08-22T14:18:30.387Z,99.00
2022-08-22T14:22:17.176Z,98.70
2022-08-22T14:25:59.372Z,99.90
2022-08-22T14:30:01.517Z,99.90
2022-08-22T14:33:51.131Z,99.80
2022-08-22T14:37:39.043Z,99.90
2022-08-22T14:41:26.656Z,99.90
2022-08-22T14:45:10.497Z,99.90
2022-08-22T14:49:28.841Z,98.50
2022-08-22T14:53:12.039Z,96.10
2022-08-22T14:56:54.190Z,94.40
2022-08-22T15:00:40.951Z,96.70
2022-08-22T15:04:38.046Z,96.00
2022-08-22T15:08:27.539Z,97.30
2022-08-22T15:12:29.381Z,96.90
2022-08-22T15:16:35.611Z,95.40
2022-08-22T15:20:35.633Z,98.00
2022-08-22T15:24:18.522Z,98.30
2022-08-22T15:28:05.079Z,99.10
2022-08-22T15:31:51.115Z,97.90
2022-08-22T15:35:33.483Z,98.40
2022-08-22T15:39:30.775Z,98.50
2022-08-22T15:43:35.044Z,97.30
2022-08-22T15:47:32.884Z,98.70
2022-08-22T15:51:37.766Z,97.80
2022-08-22T15:55:24.689Z,96.80
2022-08-22T15:59:20.338Z,98.80
2022-08-22T16:03:05.056Z,95.80
2022-08-22T16:06:50.695Z,97.50
2022-08-22T16:10:35.132Z,97.50
2022-08-22T16:14:45.231Z,97.80
2022-08-22T16:18:39.897Z,96.20
2022-08-22T16:22:21.762Z,96.50
2022-08-22T16:26:03.597Z,98.30
2022-08-22T16:29:46.051Z,98.30
2022-08-22T16:33:35.398Z,98.40
2022-08-22T16:37:44.010Z,98.80
2022-08-22T16:41:44.246Z,96.00
2022-08-22T16:45:44.668Z,97.20
2022-08-22T16:49:30.572Z,97.00
2022-08-22T16:53:21.465Z,98.20
2022-08-22T16:57:07.719Z,96.50
2022-08-22T17:00:58.035Z,98.60
2022-08-22T17:04:59.261Z,97.20
2022-08-22T17:09:14.546Z,98.10
2022-08-22T17:13:20.540Z,96.80
2022-08-22T17:17:27.150Z,97.10
2022-08-22T17:21:17.634Z,96.90
2022-08-22T17:25:24.173Z,98.00
2022-08-22T17:29:23.329Z,97.70
2022-08-22T17:33:11.049Z,98.30
2022-08-22T17:37:30.711Z,97.20
2022-08-22T17:41:19.387Z,96.30
2022-08-22T17:45:12.388Z,96.90
2022-08-22T17:49:11.292Z,97.50
2022-08-22T17:53:27.827Z,98.30
2022-08-22T17:57:23.512Z,96.70
2022-08-22T18:01:13.576Z,99.00
2022-08-22T18:05:19.510Z,97.80
2022-08-22T18:09:14.923Z,97.20
2022-08-22T18:13:12.546Z,97.60
2022-08-22T18:16:54.846Z,98.20
2022-08-22T18:21:00.834Z,98.60
2022-08-22T18:25:01.590Z,96.40
2022-08-22T18:28:54.892Z,97.10
2022-08-22T18:33:08.255Z,98.80
2022-08-22T18:37:12.812Z,96.90
2022-08-22T18:40:54.741Z,97.10
2022-08-22T18:44:37.534Z,99.00
2022-08-22T18:48:54.462Z,99.30
2022-08-22T18:52:41.787Z,98.40
2022-08-22T18:56:41.605Z,99.70
2022-08-22T19:00:39.133Z,98.30
2022-08-22T19:04:24.392Z,99.60
2022-08-22T19:08:36.905Z,99.10
2022-08-22T19:12:37.530Z,98.50
2022-08-22T19:16:41.903Z,98.40
2022-08-22T19:21:03.609Z,98.90
2022-08-22T19:25:18.362Z,99.90
2022-08-22T19:29:10.733Z,99.20
2022-08-22T19:32:59.015Z,99.90
2022-08-22T19:36:40.974Z,99.90
2022-08-22T19:40:50.238Z,99.40
2022-08-22T19:44:42.345Z,99.80
2022-08-22T19:48:33.371Z,99.90
2022-08-22T19:52:49.091Z,99.90
2022-08-22T19:57:10.197Z,99.90
2022-08-22T20:00:53.611Z,99.90
2022-08-22T20:04:54.997Z,99.90
2022-08-22T20:08:53.975Z,99.90
2022-08-22T20:13:05.727Z,99.90
2022-08-22T20:17:33.989Z,99.90
2022-08-22T20:21:55.532Z,99.90
2022-08-22T20:25:51.934Z,99.90
2022-08-22T20:29:35.007Z,99.90
2022-08-22T20:33:41.112Z,99.90
2022-08-22T20:37:44.973Z,99.90
2022-08-22T20:41:42.966Z,99.90
2022-08-22T20:45:24.969Z,99.90
2022-08-22T20:49:24.464Z,99.90
2022-08-22T20:53:16.888Z,99.90
2022-08-22T20:57:01.407Z,99.90
2022-08-22T21:00:45.567Z,99.90
2022-08-22T21:04:28.426Z,99.90
2022-08-22T21:08:26.471Z,99.90
2022-08-22T21:12:09.456Z,99.90
2022-08-22T21:15:56.957Z,99.90
2022-08-22T21:19:38.762Z,99.90
2022-08-22T21:23:20.663Z,99.90
2022-08-22T21:27:02.447Z,99.90
2022-08-22T21:30:48.394Z,99.90
2022-08-22T21:34:31.827Z,99.90
2022-08-22T21:38:16.559Z,99.90
2022-08-22T21:42:01.384Z,99.90
2022-08-22T21:45:43.767Z,99.90
2022-08-22T21:49:27.943Z,99.90
2022-08-22T21:53:16.682Z,99.90
2022-08-22T21:57:19.568Z,99.90
2022-08-22T22:01:02.958Z,99.90
2022-08-22T22:04:46.457Z,99.90
2022-08-22T22:08:29.261Z,99.90
2022-08-22T22:12:13.279Z,99.90
2022-08-22T22:15:55.241Z,99.90
2022-08-22T22:19:37.186Z,99.90
2022-08-22T22:23:19.658Z,99.90
2022-08-22T22:27:02.004Z,99.90
2022-08-22T22:30:44.227Z,99.90
2022-08-22T22:34:26.047Z,99.90
2022-08-22T22:38:08.189Z,99.90
2022-08-22T22:41:49.999Z,99.90
2022-08-22T22:45:31.803Z,99.90
2022-08-22T22:49:13.784Z,99.90
2022-08-22T22:52:55.672Z,99.90
2022-08-22T22:56:37.449Z,99.90
2022-08-22T23:00:20.151Z,99.90
2022-08-22T23:04:05.601Z,99.90
2022-08-22T23:07:47.835Z,99.90
2022-08-22T23:11:30.217Z,99.90
2022-08-22T23:15:12.405Z,99.90
2022-08-22T23:18:54.541Z,99.90
2022-08-22T23:22:36.352Z,99.90
2022-08-22T23:26:18.297Z,99.90
2022-08-22T23:30:00.168Z,99.90
2022-08-22T23:33:42.453Z,99.90
2022-08-22T23:37:24.329Z,99.90
2022-08-22T23:41:09.817Z,99.90
2022-08-22T23:44:51.939Z,99.90
2022-08-22T23:48:33.793Z,99.90
2022-08-22T23:52:15.650Z,99.90
2022-08-22T23:55:59.208Z,99.90
2022-08-22T23:59:46.393Z,99.90
